Hatsu Envoy — VSQL9 — position and weather

sailwx.info

Track history (hours):
 
Tides and Currents Weather Stations Pressure Air Temp Water Temp Dewpoint Dewpoint Depression Visibility Wind Speed Wind Dir Waves Ship Positions

Hatsu Envoy

Last reported at 2014-Oct-31 07:27 UTC. Time now 2014-Oct-31 19:15 UTC.
Position N 22°34' E 114°16'.

Type: Ship (hazmat cat D). MMSI: 235414000.

Date/timePositionNaut miles runAvg speedWind from/ knotsBaromVisibWave heightAir tempDewpointWater temp
2014-Oct-31 07:27N 22°34' E 114°16'0 0.1
2014-Oct-31 05:32N 22°34' E 114°16'0 0.0
2014-Oct-31 04:22N 22°34' E 114°16'0 0.0
2014-Oct-31 03:33N 22°34' E 114°16'0 0.0
2014-Oct-31 02:33N 22°34' E 114°16'0 0.0
2014-Oct-31 01:33N 22°34' E 114°16'0 0.0
2014-Oct-31 00:27N 22°34' E 114°16'0 0.0
2014-Oct-30 23:32N 22°34' E 114°16'1 0.6
2014-Oct-30 22:33N 22°34' E 114°16'19 4.4
2014-Oct-30 18:18N 22°18' E 114°06'1111.6
2014-Oct-30 17:21N 22°22' E 113°55'5 5.4
2014-Oct-30 16:24N 22°27' E 113°54'0 0.0
2014-Oct-30 14:23N 22°27' E 113°54'0 0.0
2014-Oct-30 13:30N 22°27' E 113°54'0 0.0
2014-Oct-30 12:17N 22°27' E 113°54'0 0.0
2014-Oct-30 09:24N 22°27' E 113°54'0 0.0
2014-Oct-30 08:30N 22°27' E 113°54'0 0.0
2014-Oct-30 07:30N 22°27' E 113°54'0 0.0
2014-Oct-30 06:18N 22°27' E 113°54'0 0.0
2014-Oct-30 05:30N 22°27' E 113°54'0 0.0
2014-Oct-30 04:30N 22°27' E 113°54'3 3.5
2014-Oct-30 03:33N 22°24' E 113°54'1111.0
2014-Oct-30 02:32N 22°20' E 114°05'25214.0
2014-Oct-29 08:33N 23°42' E 118°24'40111.1
2014-Oct-27 20:23N 29°12' E 122°37'2117.2
2014-Oct-27 19:11N 29°32' E 122°30'1117.3
2014-Oct-27 18:33N 29°41' E 122°24'1313.3
2014-Oct-27 17:33N 29°50' E 122°13'9 9.2
2014-Oct-27 16:34N 29°54' E 122°03'0 0.3
2014-Oct-27 15:33N 29°53' E 122°03'0 0.0
2014-Oct-27 13:27N 29°53' E 122°03'0 0.0
2014-Oct-27 11:27N 29°53' E 122°03'0 0.0
2014-Oct-27 10:27N 29°53' E 122°03'0 0.0
2014-Oct-27 09:33N 29°53' E 122°03'0 0.0
2014-Oct-27 08:21N 29°53' E 122°03'0 0.0
2014-Oct-27 07:21N 29°53' E 122°03'0 0.0
2014-Oct-27 06:27N 29°53' E 122°03'0 0.0
2014-Oct-27 04:18N 29°53' E 122°03'0 0.0
2014-Oct-27 03:27N 29°53' E 122°03'0 0.0
2014-Oct-27 02:31N 29°53' E 122°03'0 0.0
2014-Oct-27 01:31N 29°53' E 122°03'0 0.0
2014-Oct-27 00:33N 29°53' E 122°03'0 0.0
2014-Oct-26 23:33N 29°53' E 122°03'0 0.0
2014-Oct-26 22:33N 29°53' E 122°03'0 0.0
2014-Oct-26 21:32N 29°53' E 122°03'1 1.3
2014-Oct-26 20:33N 29°54' E 122°04'9 9.2
2014-Oct-26 19:33N 29°50' E 122°13'9 9.3
2014-Oct-26 18:33N 29°46' E 122°23'5 5.2
2014-Oct-26 17:32N 29°46' E 122°29'0 0.1
2014-Oct-26 16:20N 29°46' E 122°29'0 0.1
2014-Oct-26 15:26N 29°46' E 122°29'0 0.1
2014-Oct-26 14:20N 29°46' E 122°29'0 0.1
2014-Oct-26 13:32N 29°46' E 122°29'0 0.0
2014-Oct-26 12:26N 29°46' E 122°29'0 0.1
2014-Oct-26 11:14N 29°46' E 122°29'0 0.0
2014-Oct-26 10:26N 29°46' E 122°29'0 0.2
2014-Oct-26 09:20N 29°46' E 122°29'0 0.0
2014-Oct-26 08:26N 29°46' E 122°29'0 0.1
2014-Oct-26 07:32N 29°46' E 122°29'1 0.6
2014-Oct-26 06:33N 29°47' E 122°30'8 8.3
2014-Oct-26 05:33N 29°49' E 122°39'2813.8
2014-Oct-26 03:33N 30°15' E 122°49'2612.7
2014-Oct-26 01:31N 30°31' E 122°26'1212.1
2014-Oct-26 00:31N 30°33' E 122°12'8 2.0
2014-Oct-25 20:15N 30°37' E 122°04'0 0.0
2014-Oct-25 19:33N 30°37' E 122°04'0 0.0
2014-Oct-25 18:31N 30°37' E 122°04'0 0.0
2014-Oct-25 17:33N 30°37' E 122°04'0 0.0
2014-Oct-25 16:33N 30°37' E 122°04'0 0.0
2014-Oct-25 15:32N 30°37' E 122°04'0 0.0
2014-Oct-25 14:33N 30°37' E 122°04'0 0.0
2014-Oct-25 13:30N 30°37' E 122°04'0 0.0
2014-Oct-25 12:32N 30°37' E 122°04'0 0.4
2014-Oct-25 11:33N 30°38' E 122°03'7 7.0
2014-Oct-25 10:33N 30°34' E 122°10'7 6.6
2014-Oct-25 09:30N 30°33' E 122°18'3214.6
2014-Oct-25 07:18N 30°36' E 122°55'16616.3
2014-Oct-24 21:07N 33°23' E 122°55'3116.7
2014-Oct-24 19:16N 33°54' E 122°56'2816.2
2014-Oct-24 17:33N 34°15' E 122°35'1615.6
2014-Oct-24 16:33N 34°27' E 122°23'4816.2
2014-Oct-24 13:33N 35°03' E 121°44'72 2.8
2014-Oct-23 12:05N 35°57' E 120°45'1018.6
2014-Oct-23 11:33N 35°56' E 120°57'  
Track history (hours):
 
Tides and Currents Weather Stations Pressure Air Temp Water Temp Dewpoint Dewpoint Depression Visibility Wind Speed Wind Dir Waves Ship Positions

Hatsu Envoy

Last reported at 2014-Oct-31 07:27 UTC. Time now 2014-Oct-31 19:15 UTC.
Position N 22°34' E 114°16'.

Type: Ship (hazmat cat D). MMSI: 235414000.

Date/timePositionNaut miles runAvg speedWind from/ knotsBaromVisibWave heightAir tempDewpointWater temp
2014-Oct-31 07:27N 22°34' E 114°16'0 0.1
2014-Oct-31 05:32N 22°34' E 114°16'0 0.0
2014-Oct-31 04:22N 22°34' E 114°16'0 0.0
2014-Oct-31 03:33N 22°34' E 114°16'0 0.0
2014-Oct-31 02:33N 22°34' E 114°16'0 0.0
2014-Oct-31 01:33N 22°34' E 114°16'0 0.0
2014-Oct-31 00:27N 22°34' E 114°16'0 0.0
2014-Oct-30 23:32N 22°34' E 114°16'1 0.6
2014-Oct-30 22:33N 22°34' E 114°16'19 4.4
2014-Oct-30 18:18N 22°18' E 114°06'1111.6
2014-Oct-30 17:21N 22°22' E 113°55'5 5.4
2014-Oct-30 16:24N 22°27' E 113°54'0 0.0
2014-Oct-30 14:23N 22°27' E 113°54'0 0.0
2014-Oct-30 13:30N 22°27' E 113°54'0 0.0
2014-Oct-30 12:17N 22°27' E 113°54'0 0.0
2014-Oct-30 09:24N 22°27' E 113°54'0 0.0
2014-Oct-30 08:30N 22°27' E 113°54'0 0.0
2014-Oct-30 07:30N 22°27' E 113°54'0 0.0
2014-Oct-30 06:18N 22°27' E 113°54'0 0.0
2014-Oct-30 05:30N 22°27' E 113°54'0 0.0
2014-Oct-30 04:30N 22°27' E 113°54'3 3.5
2014-Oct-30 03:33N 22°24' E 113°54'1111.0
2014-Oct-30 02:32N 22°20' E 114°05'25214.0
2014-Oct-29 08:33N 23°42' E 118°24'40111.1
2014-Oct-27 20:23N 29°12' E 122°37'2117.2
2014-Oct-27 19:11N 29°32' E 122°30'1117.3
2014-Oct-27 18:33N 29°41' E 122°24'1313.3
2014-Oct-27 17:33N 29°50' E 122°13'9 9.2
2014-Oct-27 16:34N 29°54' E 122°03'0 0.3
2014-Oct-27 15:33N 29°53' E 122°03'0 0.0
2014-Oct-27 13:27N 29°53' E 122°03'0 0.0
2014-Oct-27 11:27N 29°53' E 122°03'0 0.0
2014-Oct-27 10:27N 29°53' E 122°03'0 0.0
2014-Oct-27 09:33N 29°53' E 122°03'0 0.0
2014-Oct-27 08:21N 29°53' E 122°03'0 0.0
2014-Oct-27 07:21N 29°53' E 122°03'0 0.0
2014-Oct-27 06:27N 29°53' E 122°03'0 0.0
2014-Oct-27 04:18N 29°53' E 122°03'0 0.0
2014-Oct-27 03:27N 29°53' E 122°03'0 0.0
2014-Oct-27 02:31N 29°53' E 122°03'0 0.0
2014-Oct-27 01:31N 29°53' E 122°03'0 0.0
2014-Oct-27 00:33N 29°53' E 122°03'0 0.0
2014-Oct-26 23:33N 29°53' E 122°03'0 0.0
2014-Oct-26 22:33N 29°53' E 122°03'0 0.0
2014-Oct-26 21:32N 29°53' E 122°03'1 1.3
2014-Oct-26 20:33N 29°54' E 122°04'9 9.2
2014-Oct-26 19:33N 29°50' E 122°13'9 9.3
2014-Oct-26 18:33N 29°46' E 122°23'5 5.2
2014-Oct-26 17:32N 29°46' E 122°29'0 0.1
2014-Oct-26 16:20N 29°46' E 122°29'0 0.1
2014-Oct-26 15:26N 29°46' E 122°29'0 0.1
2014-Oct-26 14:20N 29°46' E 122°29'0 0.1
2014-Oct-26 13:32N 29°46' E 122°29'0 0.0
2014-Oct-26 12:26N 29°46' E 122°29'0 0.1
2014-Oct-26 11:14N 29°46' E 122°29'0 0.0
2014-Oct-26 10:26N 29°46' E 122°29'0 0.2
2014-Oct-26 09:20N 29°46' E 122°29'0 0.0
2014-Oct-26 08:26N 29°46' E 122°29'0 0.1
2014-Oct-26 07:32N 29°46' E 122°29'1 0.6
2014-Oct-26 06:33N 29°47' E 122°30'8 8.3
2014-Oct-26 05:33N 29°49' E 122°39'2813.8
2014-Oct-26 03:33N 30°15' E 122°49'2612.7
2014-Oct-26 01:31N 30°31' E 122°26'1212.1
2014-Oct-26 00:31N 30°33' E 122°12'8 2.0
2014-Oct-25 20:15N 30°37' E 122°04'0 0.0
2014-Oct-25 19:33N 30°37' E 122°04'0 0.0
2014-Oct-25 18:31N 30°37' E 122°04'0 0.0
2014-Oct-25 17:33N 30°37' E 122°04'0 0.0
2014-Oct-25 16:33N 30°37' E 122°04'0 0.0
2014-Oct-25 15:32N 30°37' E 122°04'0 0.0
2014-Oct-25 14:33N 30°37' E 122°04'0 0.0
2014-Oct-25 13:30N 30°37' E 122°04'0 0.0
2014-Oct-25 12:32N 30°37' E 122°04'0 0.4
2014-Oct-25 11:33N 30°38' E 122°03'7 7.0
2014-Oct-25 10:33N 30°34' E 122°10'7 6.6
2014-Oct-25 09:30N 30°33' E 122°18'3214.6
2014-Oct-25 07:18N 30°36' E 122°55'16616.3
2014-Oct-24 21:07N 33°23' E 122°55'3116.7
2014-Oct-24 19:16N 33°54' E 122°56'2816.2
2014-Oct-24 17:33N 34°15' E 122°35'1615.6
2014-Oct-24 16:33N 34°27' E 122°23'4816.2
2014-Oct-24 13:33N 35°03' E 121°44'72 2.8
2014-Oct-23 12:05N 35°57' E 120°45'1018.6
2014-Oct-23 11:33N 35°56' E 120°57'  

Dump ship's entire track history